createdAt,value
2017-11-30T00:00:39.179Z,3.16
2017-11-30T00:03:06.838Z,3.16
2017-11-30T00:05:34.579Z,3.16
2017-11-30T00:08:02.171Z,3.15
2017-11-30T00:10:29.807Z,3.15
2017-11-30T00:12:57.388Z,3.16
2017-11-30T00:15:25.080Z,3.16
2017-11-30T00:17:52.799Z,3.16
2017-11-30T00:20:20.452Z,3.16
2017-11-30T00:22:48.105Z,3.15
2017-11-30T00:25:15.849Z,3.15
2017-11-30T00:27:43.580Z,3.12
2017-11-30T00:30:11.269Z,3.11
2017-11-30T00:32:38.914Z,3.12
2017-11-30T00:35:06.580Z,3.14
2017-11-30T00:37:34.268Z,3.14
2017-11-30T00:40:01.920Z,3.15
2017-11-30T00:42:41.572Z,3.15
2017-11-30T00:45:09.236Z,3.16
2017-11-30T00:47:36.916Z,3.16
2017-11-30T00:50:04.576Z,3.17
2017-11-30T00:52:32.264Z,3.17
2017-11-30T00:54:59.917Z,3.18
2017-11-30T00:57:27.624Z,3.19
2017-11-30T00:59:55.352Z,3.20
2017-11-30T01:02:22.987Z,3.22
2017-11-30T01:04:50.639Z,3.23
2017-11-30T01:07:18.352Z,3.23
2017-11-30T01:09:46.009Z,3.24
2017-11-30T01:12:13.709Z,3.23
2017-11-30T01:14:41.362Z,3.21
2017-11-30T01:17:09.080Z,3.21
2017-11-30T01:19:36.745Z,3.21
2017-11-30T01:22:04.350Z,3.21
2017-11-30T01:24:32.055Z,3.20
2017-11-30T01:26:59.720Z,3.19
2017-11-30T01:29:27.423Z,3.19
2017-11-30T01:31:55.073Z,3.20
2017-11-30T01:34:22.768Z,3.21
2017-11-30T01:36:50.413Z,3.21
2017-11-30T01:39:18.104Z,3.23
2017-11-30T01:41:45.760Z,3.23
2017-11-30T01:44:13.455Z,3.23
2017-11-30T01:46:41.106Z,3.25
2017-11-30T01:49:08.817Z,3.24
2017-11-30T01:51:36.466Z,3.25
2017-11-30T01:54:04.173Z,3.24
2017-11-30T01:56:31.867Z,3.23
2017-11-30T01:58:59.601Z,3.23
2017-11-30T02:01:27.281Z,3.21
2017-11-30T02:03:55.013Z,3.21
2017-11-30T02:06:22.671Z,3.22
2017-11-30T02:08:50.329Z,3.21
2017-11-30T02:11:18.038Z,3.19
2017-11-30T02:13:45.688Z,3.19
2017-11-30T02:16:13.372Z,3.17
2017-11-30T02:18:41.031Z,3.15
2017-11-30T02:21:08.736Z,3.16
2017-11-30T02:23:36.536Z,3.15
2017-11-30T02:26:04.268Z,3.14
2017-11-30T02:28:31.998Z,3.14
2017-11-30T02:30:59.750Z,3.15
2017-11-30T02:33:27.473Z,3.14
2017-11-30T02:35:55.155Z,3.12
2017-11-30T02:38:22.876Z,3.11
2017-11-30T02:40:50.654Z,3.11
2017-11-30T02:43:18.396Z,3.11
2017-11-30T02:45:46.182Z,3.09
2017-11-30T02:48:13.919Z,3.09
2017-11-30T02:50:41.673Z,3.09
2017-11-30T02:53:09.406Z,3.09
2017-11-30T02:55:37.179Z,3.09
2017-11-30T02:58:04.908Z,3.09
2017-11-30T03:00:32.658Z,3.07
2017-11-30T03:03:00.375Z,3.07
2017-11-30T03:05:28.109Z,3.07
2017-11-30T03:07:55.802Z,3.07
2017-11-30T03:10:23.558Z,3.08
2017-11-30T03:12:51.265Z,3.09
2017-11-30T03:15:19.005Z,3.09
2017-11-30T03:17:46.722Z,3.09
2017-11-30T03:20:14.455Z,3.10
2017-11-30T03:22:42.154Z,3.08
2017-11-30T03:25:09.902Z,3.08
2017-11-30T03:27:37.610Z,3.08
2017-11-30T03:30:05.384Z,3.08
2017-11-30T03:32:33.079Z,3.09
2017-11-30T03:35:00.891Z,3.09
2017-11-30T03:37:28.576Z,3.10
2017-11-30T03:39:56.314Z,3.08
2017-11-30T03:42:24.005Z,3.08
2017-11-30T03:44:51.707Z,3.09
2017-11-30T03:47:19.449Z,3.09
2017-11-30T03:49:47.142Z,3.10
2017-11-30T03:52:14.912Z,3.08
2017-11-30T03:54:42.607Z,3.08
2017-11-30T03:57:10.371Z,3.06
2017-11-30T03:59:37.995Z,3.05
2017-11-30T04:02:05.762Z,3.06
2017-11-30T04:04:33.480Z,3.06
2017-11-30T04:07:01.221Z,3.06
2017-11-30T04:09:28.913Z,3.07
2017-11-30T04:11:56.681Z,3.07
2017-11-30T04:14:24.388Z,3.07
2017-11-30T04:16:52.104Z,3.08
2017-11-30T04:19:19.806Z,3.07
2017-11-30T04:21:47.536Z,3.07
2017-11-30T04:24:15.243Z,3.06
2017-11-30T04:26:42.997Z,3.06
2017-11-30T04:29:10.701Z,3.06
2017-11-30T04:31:38.437Z,3.07
2017-11-30T04:34:06.137Z,3.05
2017-11-30T04:36:33.956Z,3.04
2017-11-30T04:39:01.666Z,3.03
2017-11-30T04:41:29.421Z,3.01
2017-11-30T04:43:57.110Z,3.01
2017-11-30T04:46:24.901Z,3.02
2017-11-30T04:48:52.646Z,3.01
2017-11-30T04:51:20.409Z,3.00
2017-11-30T04:53:48.105Z,3.00
2017-11-30T04:56:15.784Z,3.02
2017-11-30T04:58:43.483Z,3.02
2017-11-30T05:01:11.246Z,3.01
2017-11-30T05:03:38.909Z,3.02
2017-11-30T05:06:06.679Z,3.00
2017-11-30T05:08:34.378Z,3.00
2017-11-30T05:11:02.107Z,2.98
2017-11-30T05:13:29.815Z,2.99
2017-11-30T05:15:57.616Z,2.98
2017-11-30T05:18:25.306Z,2.98
2017-11-30T05:20:53.042Z,2.98
2017-11-30T05:23:20.766Z,3.00
2017-11-30T05:25:48.482Z,2.99
2017-11-30T05:28:16.247Z,2.97
2017-11-30T05:30:43.946Z,2.96
2017-11-30T05:33:11.685Z,2.96
2017-11-30T05:35:39.413Z,2.95
2017-11-30T05:38:07.160Z,2.95
2017-11-30T05:40:34.902Z,2.96
2017-11-30T05:43:02.583Z,2.96
2017-11-30T05:45:30.290Z,2.95
2017-11-30T05:47:58.044Z,2.93
2017-11-30T05:50:25.666Z,2.94
2017-11-30T05:52:53.423Z,2.92
2017-11-30T05:55:21.146Z,2.92
2017-11-30T05:57:48.905Z,2.94
2017-11-30T06:00:16.607Z,2.94
2017-11-30T06:02:44.471Z,2.95
2017-11-30T06:05:12.191Z,2.95
2017-11-30T06:07:39.966Z,2.96
2017-11-30T06:10:07.666Z,2.97
2017-11-30T06:12:35.351Z,2.98
2017-11-30T06:15:02.988Z,2.98
2017-11-30T06:17:30.660Z,2.99
2017-11-30T06:19:58.302Z,2.99
2017-11-30T06:22:25.990Z,2.99
2017-11-30T06:24:53.649Z,3.01
2017-11-30T06:27:21.315Z,3.01
2017-11-30T06:29:49.043Z,3.01
2017-11-30T06:32:16.781Z,3.00
2017-11-30T06:34:44.698Z,3.00
2017-11-30T06:37:12.501Z,3.01
2017-11-30T06:39:40.192Z,2.99
2017-11-30T06:42:07.917Z,2.99
2017-11-30T06:44:35.586Z,2.98
2017-11-30T06:47:03.394Z,2.98
2017-11-30T06:49:31.054Z,2.98
2017-11-30T06:51:58.786Z,2.99
2017-11-30T06:54:26.476Z,2.98
2017-11-30T06:56:54.349Z,2.99
2017-11-30T06:59:22.061Z,2.98
2017-11-30T07:01:49.806Z,2.96
2017-11-30T07:04:17.523Z,2.96
2017-11-30T07:06:45.276Z,2.95
2017-11-30T07:09:12.984Z,2.91
2017-11-30T07:11:40.729Z,2.88
2017-11-30T07:14:08.430Z,2.88
2017-11-30T07:16:36.177Z,2.88
2017-11-30T07:19:03.850Z,2.90
2017-11-30T07:21:31.561Z,2.90
2017-11-30T07:23:59.242Z,2.92
2017-11-30T07:26:26.943Z,2.91
2017-11-30T07:28:54.617Z,2.91
2017-11-30T07:31:22.335Z,2.91
2017-11-30T07:33:50.024Z,2.91
2017-11-30T07:36:17.773Z,2.90
2017-11-30T07:38:45.510Z,2.88
2017-11-30T07:41:13.229Z,2.87
2017-11-30T07:43:40.983Z,2.88
2017-11-30T07:46:08.673Z,2.90
2017-11-30T07:48:36.514Z,2.90
2017-11-30T07:51:04.204Z,2.92
2017-11-30T07:53:31.955Z,2.93
2017-11-30T07:55:59.665Z,2.94
2017-11-30T07:58:27.370Z,2.96
2017-11-30T08:00:55.021Z,2.99
2017-11-30T08:03:22.695Z,3.01
2017-11-30T08:05:50.343Z,3.03
2017-11-30T08:08:18.037Z,3.06
2017-11-30T08:10:45.660Z,3.08
2017-11-30T08:13:13.401Z,3.13
2017-11-30T08:15:41.130Z,3.17
2017-11-30T08:18:08.926Z,3.20
2017-11-30T08:20:36.634Z,3.22
2017-11-30T08:23:04.424Z,3.24
2017-11-30T08:25:32.076Z,3.28
2017-11-30T08:27:59.918Z,3.33
2017-11-30T08:30:27.641Z,3.40
2017-11-30T08:32:55.417Z,3.45
2017-11-30T08:35:23.193Z,3.50
2017-11-30T08:37:50.922Z,3.52
2017-11-30T08:40:18.562Z,3.57
2017-11-30T08:42:46.600Z,3.60
2017-11-30T08:45:14.337Z,3.64
2017-11-30T08:47:42.155Z,3.65
2017-11-30T08:50:09.869Z,3.68
2017-11-30T08:52:37.650Z,3.66
2017-11-30T08:55:05.359Z,3.66
2017-11-30T08:57:33.129Z,3.68
2017-11-30T09:00:00.828Z,3.72
2017-11-30T09:02:28.607Z,3.71
2017-11-30T09:04:56.261Z,3.60
2017-11-30T09:07:23.948Z,3.55
2017-11-30T09:09:51.648Z,3.52
2017-11-30T09:12:19.361Z,3.52
2017-11-30T09:14:47.135Z,3.48
2017-11-30T09:17:14.842Z,3.46
2017-11-30T09:19:42.584Z,3.49
2017-11-30T09:22:10.216Z,3.51
2017-11-30T09:24:37.908Z,3.51
2017-11-30T09:27:06.423Z,3.50
2017-11-30T09:29:34.179Z,3.49
2017-11-30T09:32:01.880Z,3.48
2017-11-30T09:34:29.622Z,3.45
2017-11-30T09:36:57.400Z,3.43
2017-11-30T09:39:25.186Z,3.44
2017-11-30T09:41:52.891Z,3.43
2017-11-30T09:44:20.639Z,3.43
2017-11-30T09:46:48.383Z,3.41
2017-11-30T09:49:16.154Z,3.39
2017-11-30T09:51:43.896Z,3.39
2017-11-30T09:54:11.680Z,3.39
2017-11-30T09:56:39.414Z,3.38
2017-11-30T09:59:07.185Z,3.36
2017-11-30T10:01:34.862Z,3.37
2017-11-30T10:04:02.589Z,3.37
2017-11-30T10:06:30.277Z,3.37
2017-11-30T10:08:57.995Z,3.38
2017-11-30T10:11:25.642Z,3.37
2017-11-30T10:13:53.316Z,3.40
2017-11-30T10:16:20.950Z,3.42
2017-11-30T10:18:48.742Z,3.44
2017-11-30T10:21:16.373Z,3.49
2017-11-30T10:23:44.095Z,3.55
2017-11-30T10:26:11.811Z,3.64
2017-11-30T10:28:39.498Z,3.71
2017-11-30T10:31:07.166Z,3.77
2017-11-30T10:33:34.877Z,3.80
2017-11-30T10:36:02.580Z,3.80
2017-11-30T10:38:30.269Z,3.81
2017-11-30T10:40:57.985Z,3.86
2017-11-30T10:43:25.679Z,3.91
2017-11-30T10:45:53.366Z,3.86
2017-11-30T10:48:21.118Z,3.86
2017-11-30T10:50:48.795Z,3.89
2017-11-30T10:53:16.505Z,3.91
2017-11-30T10:55:44.202Z,3.92
2017-11-30T10:58:11.908Z,3.94
2017-11-30T11:00:39.668Z,3.94
2017-11-30T11:03:07.380Z,3.95
2017-11-30T11:05:35.172Z,3.96
2017-11-30T11:08:02.878Z,4.09
2017-11-30T11:10:30.629Z,4.23
2017-11-30T11:12:58.282Z,4.33
2017-11-30T11:15:26.055Z,4.43
2017-11-30T11:17:53.797Z,4.56
2017-11-30T11:20:21.472Z,4.63
2017-11-30T11:22:49.171Z,4.58
2017-11-30T11:25:16.924Z,4.46
2017-11-30T11:27:44.623Z,4.39
2017-11-30T11:30:12.383Z,4.25
2017-11-30T11:32:40.110Z,4.10
2017-11-30T11:35:07.852Z,3.94
2017-11-30T11:37:35.853Z,3.87
2017-11-30T11:40:03.624Z,3.85
2017-11-30T11:42:31.294Z,3.79
2017-11-30T11:44:59.051Z,3.76
2017-11-30T11:47:26.772Z,3.82
2017-11-30T11:49:54.490Z,3.84
2017-11-30T11:52:22.155Z,3.88
2017-11-30T11:54:49.857Z,3.83
2017-11-30T11:57:17.576Z,3.73
2017-11-30T11:59:45.332Z,3.73
2017-11-30T12:02:13.151Z,3.83
2017-11-30T12:04:40.905Z,3.87
2017-11-30T12:07:08.545Z,3.88
2017-11-30T12:09:36.273Z,3.91
2017-11-30T12:12:03.904Z,3.91
2017-11-30T12:14:31.607Z,3.88
2017-11-30T12:16:59.249Z,3.79
2017-11-30T12:19:26.937Z,3.71
2017-11-30T12:21:54.559Z,3.78
2017-11-30T12:24:22.286Z,3.82
2017-11-30T12:26:49.915Z,3.79
2017-11-30T12:29:17.707Z,3.72
2017-11-30T12:31:45.301Z,3.74
2017-11-30T12:34:13.277Z,3.74
2017-11-30T12:36:42.474Z,3.73
2017-11-30T12:42:14.532Z,3.74
2017-11-30T12:44:42.247Z,3.73
2017-11-30T12:47:09.886Z,3.64
2017-11-30T12:49:37.563Z,3.59
2017-11-30T12:52:05.214Z,3.60
2017-11-30T12:54:32.953Z,3.63
2017-11-30T12:57:00.658Z,3.63
2017-11-30T12:59:28.344Z,3.70
2017-11-30T13:01:56.031Z,3.71
2017-11-30T13:04:23.718Z,3.75
2017-11-30T13:06:51.568Z,3.79
2017-11-30T13:09:22.216Z,3.81
2017-11-30T13:11:49.898Z,3.79
2017-11-30T13:14:17.565Z,3.81
2017-11-30T13:16:45.322Z,3.87
2017-11-30T13:19:12.970Z,3.87
2017-11-30T13:21:40.714Z,3.88
2017-11-30T13:24:08.962Z,3.87
2017-11-30T13:26:36.753Z,3.89
2017-11-30T13:29:04.502Z,3.81
2017-11-30T13:31:32.249Z,3.73
2017-11-30T13:33:59.939Z,3.65
2017-11-30T13:36:27.643Z,3.60
2017-11-30T13:38:55.292Z,3.54
2017-11-30T13:41:23.024Z,3.49
2017-11-30T13:43:50.649Z,3.47
2017-11-30T13:46:18.396Z,3.46
2017-11-30T13:48:46.058Z,3.47
2017-11-30T13:51:13.810Z,3.46
2017-11-30T13:53:41.521Z,3.45
2017-11-30T13:56:09.192Z,3.44
2017-11-30T13:58:36.891Z,3.38
2017-11-30T14:01:04.632Z,3.39
2017-11-30T14:03:32.280Z,3.41
2017-11-30T14:05:59.963Z,3.41
2017-11-30T14:08:27.656Z,3.42
2017-11-30T14:10:55.340Z,3.43
2017-11-30T14:13:22.998Z,3.43
2017-11-30T14:15:50.758Z,3.43
2017-11-30T14:18:18.398Z,3.43
2017-11-30T14:20:46.060Z,3.41
2017-11-30T14:23:13.950Z,3.40
2017-11-30T14:25:41.705Z,3.37
2017-11-30T14:28:09.393Z,3.35
2017-11-30T14:30:37.143Z,3.36
2017-11-30T14:33:04.785Z,3.35
2017-11-30T14:35:32.477Z,3.34
2017-11-30T14:38:00.101Z,3.33
2017-11-30T14:40:27.787Z,3.32
2017-11-30T14:42:55.422Z,3.29
2017-11-30T14:45:23.181Z,3.26
2017-11-30T14:47:50.807Z,3.25
2017-11-30T14:50:18.589Z,3.23
2017-11-30T14:52:46.224Z,3.20
2017-11-30T14:55:13.991Z,3.19
2017-11-30T14:57:41.758Z,3.18
2017-11-30T15:00:09.571Z,3.16
2017-11-30T15:02:37.280Z,3.16
2017-11-30T15:05:04.914Z,3.15
2017-11-30T15:07:32.650Z,3.13
2017-11-30T15:10:00.312Z,3.12
2017-11-30T15:12:28.024Z,3.11
2017-11-30T15:14:55.955Z,3.07
2017-11-30T15:17:23.688Z,3.06
2017-11-30T15:19:51.382Z,3.04
2017-11-30T15:22:19.059Z,3.01
2017-11-30T15:24:46.690Z,2.99
2017-11-30T15:27:14.386Z,2.97
2017-11-30T15:29:42.663Z,2.97
2017-11-30T15:32:10.364Z,2.97
2017-11-30T15:34:38.937Z,2.98
2017-11-30T15:37:06.729Z,2.97
2017-11-30T15:39:34.455Z,2.97
2017-11-30T15:42:02.216Z,2.94
2017-11-30T15:44:29.839Z,2.93
2017-11-30T15:46:57.519Z,2.90
2017-11-30T15:49:25.140Z,2.89
2017-11-30T15:51:52.883Z,2.87
2017-11-30T15:54:20.589Z,2.85
2017-11-30T15:56:48.292Z,2.84
2017-11-30T15:59:16.002Z,2.83
2017-11-30T16:01:43.672Z,2.82
2017-11-30T16:04:11.306Z,2.81
2017-11-30T16:06:39.064Z,2.81
2017-11-30T16:09:06.697Z,2.80
2017-11-30T16:11:34.535Z,2.79
2017-11-30T16:14:02.229Z,2.78
2017-11-30T16:16:29.958Z,2.80
2017-11-30T16:18:57.598Z,2.80
2017-11-30T16:21:25.363Z,2.81
2017-11-30T16:23:52.994Z,2.83
2017-11-30T16:26:20.836Z,2.84
2017-11-30T16:28:48.522Z,2.84
2017-11-30T16:31:16.288Z,2.84
2017-11-30T16:33:43.924Z,2.82
2017-11-30T16:36:11.611Z,2.85
2017-11-30T16:38:39.231Z,2.86
2017-11-30T16:41:07.282Z,2.85
2017-11-30T16:43:35.054Z,2.84
2017-11-30T16:46:02.829Z,2.80
2017-11-30T16:48:30.532Z,2.72
2017-11-30T16:50:58.361Z,2.66
2017-11-30T16:53:26.107Z,2.59
2017-11-30T16:55:53.930Z,2.51
2017-11-30T16:58:21.649Z,2.42
2017-11-30T17:00:49.417Z,2.36
2017-11-30T17:03:17.207Z,2.33
2017-11-30T17:05:45.010Z,2.34
2017-11-30T17:08:13.348Z,2.38
2017-11-30T17:10:42.120Z,2.42
2017-11-30T17:13:10.145Z,2.46
2017-11-30T17:15:37.999Z,2.51
2017-11-30T17:18:05.786Z,2.55
2017-11-30T17:20:34.554Z,2.59
2017-11-30T17:23:02.450Z,2.63
2017-11-30T17:25:30.131Z,2.67
2017-11-30T17:27:57.866Z,2.71
2017-11-30T17:30:25.536Z,2.70
2017-11-30T17:32:53.453Z,2.71
2017-11-30T17:35:21.174Z,2.73
2017-11-30T17:37:48.859Z,2.74
2017-11-30T17:40:16.797Z,2.77
2017-11-30T17:42:44.643Z,2.78
2017-11-30T17:45:12.577Z,2.80
2017-11-30T17:47:40.390Z,2.80
2017-11-30T17:50:08.153Z,2.78
2017-11-30T17:52:35.883Z,2.77
2017-11-30T17:55:03.657Z,2.77
2017-11-30T17:57:31.398Z,2.76
2017-11-30T17:59:59.156Z,2.75
2017-11-30T18:02:26.987Z,2.73
2017-11-30T18:04:54.769Z,2.73
2017-11-30T18:07:22.470Z,2.73
2017-11-30T18:09:50.133Z,2.74
2017-11-30T18:12:17.855Z,2.73
2017-11-30T18:14:45.526Z,2.72
2017-11-30T18:17:13.314Z,2.74
2017-11-30T18:19:40.971Z,2.75
2017-11-30T18:22:08.677Z,2.75
2017-11-30T18:24:36.342Z,2.74
2017-11-30T18:27:04.068Z,2.72
2017-11-30T18:29:31.730Z,2.71
2017-11-30T18:31:59.424Z,2.68
2017-11-30T18:34:27.388Z,2.67
2017-11-30T18:36:56.276Z,2.67
2017-11-30T18:39:24.596Z,2.71
2017-11-30T18:41:52.779Z,2.73
2017-11-30T18:44:20.480Z,2.72
2017-11-30T18:46:48.197Z,2.72
2017-11-30T18:49:15.868Z,2.71
2017-11-30T18:51:43.788Z,2.71
2017-11-30T18:54:11.516Z,2.71
2017-11-30T18:56:39.263Z,2.71
2017-11-30T18:59:06.965Z,2.71
2017-11-30T19:01:34.624Z,2.70
2017-11-30T19:04:02.310Z,2.72
2017-11-30T19:06:29.951Z,2.72
2017-11-30T19:08:57.628Z,2.72
2017-11-30T19:11:25.428Z,2.73
2017-11-30T19:13:53.225Z,2.74
2017-11-30T19:16:22.863Z,2.76
2017-11-30T19:18:50.656Z,2.73
2017-11-30T19:21:18.419Z,2.74
2017-11-30T19:23:46.107Z,2.76
2017-11-30T19:26:13.759Z,2.76
2017-11-30T19:28:41.437Z,2.76
2017-11-30T19:31:09.139Z,2.76
2017-11-30T19:33:36.826Z,2.77
2017-11-30T19:36:04.467Z,2.76
2017-11-30T19:38:32.158Z,2.74
2017-11-30T19:40:59.791Z,2.74
2017-11-30T19:43:27.501Z,2.73
2017-11-30T19:45:55.136Z,2.74
2017-11-30T19:48:22.916Z,2.73
2017-11-30T19:50:50.619Z,2.71
2017-11-30T19:53:18.311Z,2.68
2017-11-30T19:55:45.957Z,2.64
2017-11-30T19:58:13.658Z,2.62
2017-11-30T20:00:41.312Z,2.58
2017-11-30T20:03:09.002Z,2.57
2017-11-30T20:05:36.640Z,2.55
2017-11-30T20:08:04.705Z,2.53
2017-11-30T20:10:32.547Z,2.53
2017-11-30T20:13:00.503Z,2.52
2017-11-30T20:15:28.328Z,2.51
2017-11-30T20:17:56.132Z,2.50
2017-11-30T20:20:23.883Z,2.49
2017-11-30T20:22:51.697Z,2.48
2017-11-30T20:25:19.409Z,2.45
2017-11-30T20:27:47.272Z,2.43
2017-11-30T20:30:15.067Z,2.43
2017-11-30T20:32:43.032Z,2.40
2017-11-30T20:35:10.833Z,2.37
2017-11-30T20:37:39.397Z,2.35
2017-11-30T20:40:09.789Z,2.32
2017-11-30T20:42:37.746Z,2.29
2017-11-30T20:45:06.984Z,2.25
2017-11-30T20:47:36.011Z,2.21
2017-11-30T20:50:04.951Z,2.19
2017-11-30T20:52:38.897Z,2.19
2017-11-30T20:55:14.172Z,2.18
2017-11-30T20:57:49.084Z,2.17
2017-11-30T21:00:24.359Z,2.15
2017-11-30T21:02:59.345Z,2.14
2017-11-30T21:05:33.774Z,2.13
2017-11-30T21:08:09.118Z,2.13
2017-11-30T21:10:41.164Z,2.13
2017-11-30T21:13:14.855Z,2.16
2017-11-30T21:15:47.663Z,2.16
2017-11-30T21:18:19.225Z,2.16
2017-11-30T21:20:50.879Z,2.16
2017-11-30T21:28:37.446Z,2.11
2017-11-30T21:31:13.385Z,2.09
2017-11-30T21:33:59.318Z,2.08
2017-11-30T21:36:33.915Z,2.05
2017-11-30T21:39:07.624Z,2.02
2017-11-30T21:41:40.645Z,1.98
2017-11-30T21:44:14.794Z,1.95
2017-11-30T21:46:49.268Z,1.92
2017-11-30T21:49:22.776Z,1.91
2017-11-30T21:51:57.497Z,1.87
2017-11-30T21:54:36.770Z,1.85
2017-11-30T21:57:09.241Z,1.83
2017-11-30T21:59:44.555Z,1.82
2017-11-30T22:02:17.901Z,1.81
2017-11-30T22:07:27.789Z,1.82
2017-11-30T22:10:00.463Z,1.85
2017-11-30T22:12:36.873Z,1.87
2017-11-30T22:15:10.404Z,1.90
2017-11-30T22:17:45.616Z,1.92
2017-11-30T22:20:20.925Z,1.96
2017-11-30T22:22:48.983Z,1.99
2017-11-30T22:25:17.672Z,2.02
2017-11-30T22:27:49.031Z,2.03
2017-11-30T22:30:18.641Z,2.05
2017-11-30T22:32:46.335Z,2.07
2017-11-30T22:35:14.056Z,2.09
2017-11-30T22:37:41.737Z,2.10
2017-11-30T22:40:09.382Z,2.11
2017-11-30T22:42:37.758Z,2.13
2017-11-30T22:45:05.639Z,2.13
2017-11-30T22:47:33.648Z,2.16
2017-11-30T22:50:01.693Z,2.16
2017-11-30T22:52:29.728Z,2.17
2017-11-30T22:54:57.469Z,2.18
2017-11-30T22:57:25.280Z,2.17
2017-11-30T22:59:52.971Z,2.17
2017-11-30T23:02:20.791Z,2.17
2017-11-30T23:04:48.498Z,2.18
2017-11-30T23:07:16.253Z,2.18
2017-11-30T23:09:45.739Z,2.18
2017-11-30T23:12:15.380Z,2.20
2017-11-30T23:14:45.225Z,2.21
2017-11-30T23:17:13.662Z,2.21
2017-11-30T23:19:41.969Z,2.21
2017-11-30T23:22:10.168Z,2.21
2017-11-30T23:24:37.975Z,2.19
2017-11-30T23:27:05.704Z,2.19
2017-11-30T23:29:33.476Z,2.20
2017-11-30T23:32:01.109Z,2.21
2017-11-30T23:34:28.908Z,2.20
2017-11-30T23:36:56.596Z,2.20
2017-11-30T23:39:24.265Z,2.21
2017-11-30T23:41:51.973Z,2.21
2017-11-30T23:44:19.771Z,2.21
2017-11-30T23:46:47.461Z,2.21
2017-11-30T23:49:15.209Z,2.21
2017-11-30T23:51:42.867Z,2.20
2017-11-30T23:54:10.617Z,2.20
2017-11-30T23:56:38.271Z,2.19
2017-11-30T23:59:06.005Z,2.19
